Time;durP1;ratioP1;P1;durP2;ratioP2;P2;SDS_P1;SDS_P2;PMS_P1;PMS_P2;Temp;Humidity;BMP_temperature;BMP_pressure;BME280_temperature;BME280_humidity;BME280_pressure;Samples;Min_cycle;Max_cycle;Signal;HPM_P1;HPM_P2
2022/07/25 00:02:17;;;;;;;9.57;7.57;;;;;;;;;;5111534;27;20839;-72
2022/07/25 00:04:43;;;;;;;9.43;7.60;;;;;;;;;;5109983;28;20060;-72
2022/07/25 00:07:09;;;;;;;9.45;7.28;;;;;;;;;;5110236;28;20379;-72
2022/07/25 00:11:27;;;;;;;11.63;8.05;;;;;;;;;;5172927;27;20116;-72
2022/07/25 00:13:53;;;;;;;10.60;8.18;;;;;;;;;;5152694;27;20026;-72
2022/07/25 00:16:19;;;;;;;9.18;7.45;;;;;;;;;;5152452;27;20023;-71
2022/07/25 00:20:31;;;;;;;10.27;6.88;;;;;;;;;;5111669;27;20469;-72
2022/07/25 00:25:38;;;;;;;9.35;6.40;;;;;;;;;;5111468;27;20423;-72
2022/07/25 00:28:04;;;;;;;9.85;6.70;;;;;;;;;;5109981;28;20036;-72
2022/07/25 00:30:31;;;;;;;10.00;7.15;;;;;;;;;;5110851;28;20490;-72
2022/07/25 00:32:57;;;;;;;9.18;6.88;;;;;;;;;;5111109;28;20042;-74
2022/07/25 00:35:50;;;;;;;8.07;6.38;;;;;;;;;;5111572;27;20317;-72
2022/07/25 00:38:16;;;;;;;9.77;7.50;;;;;;;;;;5109642;28;20024;-72
2022/07/25 00:42:35;;;;;;;9.80;7.80;;;;;;;;;;5111320;27;20431;-73
2022/07/25 00:45:01;;;;;;;10.48;7.82;;;;;;;;;;5110925;28;20518;-73
2022/07/25 00:47:28;;;;;;;11.35;8.02;;;;;;;;;;5111437;28;20054;-73
2022/07/25 00:51:09;;;;;;;10.55;7.40;;;;;;;;;;5111556;27;20396;-72
2022/07/25 00:53:36;;;;;;;9.13;6.82;;;;;;;;;;5109617;28;20115;-72
2022/07/25 00:56:44;;;;;;;10.68;6.25;;;;;;;;;;5111820;27;20442;-73
2022/07/25 00:59:10;;;;;;;9.25;6.22;;;;;;;;;;5109688;28;20412;-72
2022/07/25 01:02:39;;;;;;;8.75;6.55;;;;;;;;;;5111417;27;20397;-72
2022/07/25 01:05:05;;;;;;;8.45;6.38;;;;;;;;;;5111298;28;20537;-72
2022/07/25 01:09:24;;;;;;;8.55;7.05;;;;;;;;;;5111472;27;20879;-72
2022/07/25 01:11:50;;;;;;;8.70;6.63;;;;;;;;;;5111411;28;20112;-72
2022/07/25 01:14:16;;;;;;;10.10;6.45;;;;;;;;;;5110855;28;20028;-72
2022/07/25 01:16:42;;;;;;;8.30;6.70;;;;;;;;;;5109922;28;20027;-72
2022/07/25 01:19:24;;;;;;;11.23;6.40;;;;;;;;;;5111940;27;20412;-72
2022/07/25 01:21:50;;;;;;;8.75;6.40;;;;;;;;;;5110939;28;20036;-72
2022/07/25 01:26:24;;;;;;;10.05;7.07;;;;;;;;;;5051503;27;20492;-72
2022/07/25 01:29:20;;;;;;;9.98;6.85;;;;;;;;;;5111827;27;20958;-72
2022/07/25 01:31:46;;;;;;;9.65;6.45;;;;;;;;;;5110017;28;20032;-73
2022/07/25 01:34:12;;;;;;;9.07;6.72;;;;;;;;;;5110909;28;20030;-73
2022/07/25 01:36:38;;;;;;;8.63;6.47;;;;;;;;;;5111240;28;20039;-72
2022/07/25 01:39:04;;;;;;;9.05;6.45;;;;;;;;;;5111170;28;20020;-72
2022/07/25 01:41:30;;;;;;;9.48;6.53;;;;;;;;;;5110719;28;20028;-72
2022/07/25 01:45:14;;;;;;;9.07;6.80;;;;;;;;;;5111474;27;20389;-72
2022/07/25 01:47:40;;;;;;;10.13;6.97;;;;;;;;;;5111272;28;20020;-72
2022/07/25 01:50:07;;;;;;;9.07;7.05;;;;;;;;;;5110823;28;20024;-72
2022/07/25 01:52:33;;;;;;;10.18;7.43;;;;;;;;;;5111301;28;20073;-72
2022/07/25 01:55:22;;;;;;;9.30;6.25;;;;;;;;;;5111266;27;20961;-72
2022/07/25 01:57:48;;;;;;;8.88;6.78;;;;;;;;;;5111289;28;20380;-72
2022/07/25 02:00:14;;;;;;;8.45;6.70;;;;;;;;;;5111224;28;20498;-72
2022/07/25 02:02:41;;;;;;;9.40;7.47;;;;;;;;;;5109503;28;20058;-72
2022/07/25 02:05:08;;;;;;;9.13;7.10;;;;;;;;;;5109762;28;20028;-72
2022/07/25 02:07:34;;;;;;;9.10;6.90;;;;;;;;;;5111148;28;20024;-72
2022/07/25 02:10:01;;;;;;;10.07;7.95;;;;;;;;;;5110661;28;20537;-72
2022/07/25 02:12:27;;;;;;;8.98;6.18;;;;;;;;;;5111072;28;20099;-72
2022/07/25 02:14:53;;;;;;;9.90;7.60;;;;;;;;;;5109611;28;20023;-72
2022/07/25 02:18:24;;;;;;;11.63;7.75;;;;;;;;;;5111514;27;20397;-72
2022/07/25 02:20:50;;;;;;;9.60;7.30;;;;;;;;;;5111266;28;20468;-72
2022/07/25 02:23:17;;;;;;;9.65;7.03;;;;;;;;;;5110951;28;20048;-72
2022/07/25 02:25:43;;;;;;;8.98;6.90;;;;;;;;;;5111178;28;20484;-72
2022/07/25 02:30:22;;;;;;;9.45;7.25;;;;;;;;;;5111145;27;20462;-72
2022/07/25 02:33:01;;;;;;;8.32;6.50;;;;;;;;;;5111693;27;20400;-72
2022/07/25 02:35:27;;;;;;;8.18;6.43;;;;;;;;;;5110010;28;20097;-73
2022/07/25 02:37:53;;;;;;;9.40;7.25;;;;;;;;;;5110836;28;20019;-72
2022/07/25 02:40:19;;;;;;;9.55;6.63;;;;;;;;;;5109982;28;20054;-72
2022/07/25 02:42:45;;;;;;;11.55;8.18;;;;;;;;;;5111243;28;20020;-72
2022/07/25 02:45:12;;;;;;;9.18;7.13;;;;;;;;;;5110836;28;20028;-72
2022/07/25 02:47:39;;;;;;;9.30;6.65;;;;;;;;;;5111057;28;20020;-72
2022/07/25 02:52:57;;;;;;;10.85;7.40;;;;;;;;;;5070519;28;20940;-72
2022/07/25 02:55:23;;;;;;;8.82;6.90;;;;;;;;;;5070860;28;20017;-72
2022/07/25 02:57:49;;;;;;;9.10;6.85;;;;;;;;;;5070714;28;20024;-72
2022/07/25 03:00:15;;;;;;;10.48;6.93;;;;;;;;;;5070276;28;20032;-73
2022/07/25 03:03:06;;;;;;;9.43;7.05;;;;;;;;;;5111674;27;20915;-72
2022/07/25 03:05:32;;;;;;;8.50;6.45;;;;;;;;;;5111146;28;20111;-72
2022/07/25 03:09:10;;;;;;;8.63;6.60;;;;;;;;;;5111620;27;20767;-72
2022/07/25 03:11:36;;;;;;;10.00;7.25;;;;;;;;;;5110037;28;20034;-73
2022/07/25 03:14:02;;;;;;;11.05;7.03;;;;;;;;;;5110905;28;20020;-73
2022/07/25 03:16:28;;;;;;;9.77;7.57;;;;;;;;;;5109897;28;20016;-73
2022/07/25 03:18:54;;;;;;;9.13;6.80;;;;;;;;;;5111119;28;20024;-72
2022/07/25 03:21:20;;;;;;;10.75;6.93;;;;;;;;;;5110680;28;20063;-72
2022/07/25 03:23:47;;;;;;;8.82;6.95;;;;;;;;;;5111233;28;20020;-72
2022/07/25 03:27:09;;;;;;;9.70;6.72;;;;;;;;;;5111337;27;20397;-72
2022/07/25 03:29:35;;;;;;;9.50;6.63;;;;;;;;;;5111238;28;20028;-72
2022/07/25 03:32:02;;;;;;;9.02;6.85;;;;;;;;;;5111191;28;20081;-72
2022/07/25 03:34:28;;;;;;;8.95;6.95;;;;;;;;;;5110832;28;20103;-73
2022/07/25 03:38:38;;;;;;;10.07;7.15;;;;;;;;;;5111913;27;20416;-73
2022/07/25 03:41:04;;;;;;;10.00;7.20;;;;;;;;;;5110922;28;20530;-73
2022/07/25 03:43:30;;;;;;;11.10;7.50;;;;;;;;;;5127135;28;20020;-73
2022/07/25 03:47:07;;;;;;;9.55;7.47;;;;;;;;;;5112077;27;20462;-73
2022/07/25 03:53:09;;;;;;;9.00;6.57;;;;;;;;;;5111670;27;20458;-73
2022/07/25 03:55:35;;;;;;;9.25;6.63;;;;;;;;;;5110900;28;20028;-72
2022/07/25 04:01:00;;;;;;;9.52;7.50;;;;;;;;;;5111357;27;20413;-72
2022/07/25 04:03:26;;;;;;;9.63;7.30;;;;;;;;;;5110940;28;20024;-72
2022/07/25 04:07:33;;;;;;;9.10;6.22;;;;;;;;;;5071601;28;20407;-72
2022/07/25 04:09:59;;;;;;;9.15;6.93;;;;;;;;;;5070417;28;20565;-73
2022/07/25 04:12:26;;;;;;;9.50;7.07;;;;;;;;;;5069395;28;20112;-73
2022/07/25 04:15:03;;;;;;;9.90;6.55;;;;;;;;;;5173647;27;20307;-73
2022/07/25 04:17:29;;;;;;;10.15;7.45;;;;;;;;;;5133450;27;20098;-73
2022/07/25 04:19:55;;;;;;;9.88;7.43;;;;;;;;;;5133830;27;20138;-73
2022/07/25 04:24:54;;;;;;;11.55;7.30;;;;;;;;;;5173318;27;20311;-73
2022/07/25 04:27:56;;;;;;;10.40;6.75;;;;;;;;;;5111371;27;20377;-72
2022/07/25 04:30:22;;;;;;;9.32;6.53;;;;;;;;;;5110891;28;20488;-73
2022/07/25 04:32:49;;;;;;;9.15;6.82;;;;;;;;;;5109894;28;20089;-73
2022/07/25 04:35:15;;;;;;;10.63;7.20;;;;;;;;;;5109758;28;20386;-73
2022/07/25 04:39:12;;;;;;;9.73;7.22;;;;;;;;;;5111723;27;20437;-73
2022/07/25 04:43:38;;;;;;;9.38;6.75;;;;;;;;;;5111923;27;20397;-72
2022/07/25 04:46:04;;;;;;;10.18;7.07;;;;;;;;;;5109987;28;20030;-73
2022/07/25 04:49:52;;;;;;;11.48;7.20;;;;;;;;;;5111546;27;20389;-72
2022/07/25 04:52:18;;;;;;;8.85;6.40;;;;;;;;;;5109575;28;20115;-73
2022/07/25 04:54:44;;;;;;;10.27;6.88;;;;;;;;;;5111222;28;20515;-72
2022/07/25 04:57:10;;;;;;;8.27;6.22;;;;;;;;;;5111153;28;20032;-72
2022/07/25 05:03:14;;;;;;;10.93;6.90;;;;;;;;;;5070814;28;20407;-72
2022/07/25 05:07:56;;;;;;;12.18;7.43;;;;;;;;;;5092517;27;20382;-72
2022/07/25 05:10:23;;;;;;;8.88;6.55;;;;;;;;;;5090841;28;20063;-72
2022/07/25 05:12:49;;;;;;;9.57;6.13;;;;;;;;;;5090487;28;20048;-77
2022/07/25 05:15:15;;;;;;;8.43;6.75;;;;;;;;;;5090835;28;20052;-72
2022/07/25 05:17:41;;;;;;;11.43;7.35;;;;;;;;;;5090689;28;20020;-73
2022/07/25 05:20:07;;;;;;;8.88;6.82;;;;;;;;;;5089049;28;20130;-73
2022/07/25 05:22:54;;;;;;;12.40;7.57;;;;;;;;;;5111938;27;20380;-73
2022/07/25 05:25:20;;;;;;;10.80;6.88;;;;;;;;;;5111241;28;20020;-74
2022/07/25 05:30:46;;;;;;;9.20;6.40;;;;;;;;;;5111472;27;20454;-74
2022/07/25 05:33:13;;;;;;;10.77;6.30;;;;;;;;;;5126854;28;20031;-74
2022/07/25 05:35:39;;;;;;;12.00;7.03;;;;;;;;;;5111166;28;20026;-74
2022/07/25 05:38:39;;;;;;;10.20;7.45;;;;;;;;;;5111327;27;20987;-73
2022/07/25 05:41:05;;;;;;;10.55;6.65;;;;;;;;;;5110841;28;20030;-74
2022/07/25 05:43:32;;;;;;;8.68;6.65;;;;;;;;;;5109898;28;20069;-74
2022/07/25 05:47:08;;;;;;;9.20;6.00;;;;;;;;;;5111556;27;20452;-73
2022/07/25 05:49:34;;;;;;;8.57;6.18;;;;;;;;;;5109917;28;20438;-73
2022/07/25 05:52:01;;;;;;;10.23;6.93;;;;;;;;;;5111180;28;20028;-74
2022/07/25 05:54:27;;;;;;;9.45;6.82;;;;;;;;;;5110893;28;20499;-75
2022/07/25 05:56:53;;;;;;;9.88;7.30;;;;;;;;;;5109710;28;20393;-73
2022/07/25 05:59:19;;;;;;;9.20;6.88;;;;;;;;;;5103834;28;20072;-72
2022/07/25 06:01:45;;;;;;;8.73;6.75;;;;;;;;;;5102685;28;20361;-73
2022/07/25 06:04:11;;;;;;;8.27;6.40;;;;;;;;;;5095726;28;20025;-73
2022/07/25 06:08:43;;;;;;;8.88;6.80;;;;;;;;;;5105259;27;20790;-71
2022/07/25 06:11:09;;;;;;;10.05;6.40;;;;;;;;;;5098455;28;20024;-72
2022/07/25 06:13:35;;;;;;;8.77;6.38;;;;;;;;;;5111023;28;20039;-73
2022/07/25 06:16:01;;;;;;;8.80;6.55;;;;;;;;;;5110579;28;20376;-73
2022/07/25 06:19:34;;;;;;;8.68;6.68;;;;;;;;;;5131593;27;20676;-73
2022/07/25 06:22:00;;;;;;;8.18;6.13;;;;;;;;;;5100027;28;20029;-74
2022/07/25 06:24:26;;;;;;;8.27;6.00;;;;;;;;;;5090677;28;20031;-73
2022/07/25 06:28:37;;;;;;;9.55;6.78;;;;;;;;;;5111160;27;20392;-74
2022/07/25 06:32:13;;;;;;;9.13;6.10;;;;;;;;;;5111484;27;20438;-79
2022/07/25 06:34:39;;;;;;;9.30;6.50;;;;;;;;;;5112006;28;20073;-79
2022/07/25 06:37:06;;;;;;;9.02;7.05;;;;;;;;;;5111248;28;20020;-78
2022/07/25 06:41:15;;;;;;;8.65;6.45;;;;;;;;;;5111650;27;20422;-73
2022/07/25 06:43:41;;;;;;;8.93;6.47;;;;;;;;;;5117859;28;20032;-77
2022/07/25 06:46:54;;;;;;;9.43;7.50;;;;;;;;;;5111721;27;20388;-77
2022/07/25 06:49:21;;;;;;;13.02;6.55;;;;;;;;;;5109953;28;20541;-78
2022/07/25 06:51:47;;;;;;;8.00;6.15;;;;;;;;;;5102339;28;20042;-77
2022/07/25 06:54:14;;;;;;;9.05;5.95;;;;;;;;;;5101839;28;20531;-77
2022/07/25 06:56:40;;;;;;;12.30;6.65;;;;;;;;;;5089678;28;20082;-79
2022/07/25 06:59:06;;;;;;;9.75;6.63;;;;;;;;;;5090125;28;20047;-79
2022/07/25 07:01:32;;;;;;;9.63;6.63;;;;;;;;;;5090600;28;20024;-77
2022/07/25 07:05:00;;;;;;;9.00;5.55;;;;;;;;;;5110461;27;20388;-78
2022/07/25 07:07:27;;;;;;;8.77;5.78;;;;;;;;;;5110850;28;20028;-78
2022/07/25 07:11:49;;;;;;;9.60;6.13;;;;;;;;;;5106879;27;20485;-77
2022/07/25 07:15:54;;;;;;;9.60;5.65;;;;;;;;;;5171569;27;20333;-79
2022/07/25 07:18:21;;;;;;;10.93;6.53;;;;;;;;;;5151253;27;20079;-78
2022/07/25 07:20:59;;;;;;;9.18;6.50;;;;;;;;;;5109365;27;20761;-79
2022/07/25 07:23:25;;;;;;;12.65;6.50;;;;;;;;;;5108241;28;20030;-78
2022/07/25 07:25:51;;;;;;;9.90;7.45;;;;;;;;;;5110103;28;20051;-79
2022/07/25 07:28:18;;;;;;;8.73;6.03;;;;;;;;;;5102481;28;20036;-77
2022/07/25 07:30:44;;;;;;;8.25;6.05;;;;;;;;;;5102493;28;20028;-77
2022/07/25 07:33:10;;;;;;;8.98;6.00;;;;;;;;;;5109322;28;20095;-77
2022/07/25 07:35:36;;;;;;;9.27;7.05;;;;;;;;;;5090983;28;20078;-79
2022/07/25 07:38:03;;;;;;;8.35;5.93;;;;;;;;;;5094715;28;20487;-80
2022/07/25 07:40:29;;;;;;;9.52;6.07;;;;;;;;;;5110577;28;20035;-80
2022/07/25 07:42:57;;;;;;;9.32;5.78;;;;;;;;;;5109355;28;20115;-78
2022/07/25 07:45:27;;;;;;;10.35;6.38;;;;;;;;;;5109347;28;20042;-75
2022/07/25 07:47:53;;;;;;;9.05;6.07;;;;;;;;;;5110271;28;20099;-79
2022/07/25 07:51:58;;;;;;;11.50;6.53;;;;;;;;;;5111054;27;20409;-80
2022/07/25 07:57:09;;;;;;;9.45;6.38;;;;;;;;;;5111984;28;20034;-79
2022/07/25 07:59:36;;;;;;;8.20;5.72;;;;;;;;;;5104631;28;20430;-76
2022/07/25 08:02:02;;;;;;;8.80;5.90;;;;;;;;;;5099525;28;20030;-80
2022/07/25 08:04:28;;;;;;;8.65;6.20;;;;;;;;;;5099338;28;20536;-78
2022/07/25 08:06:54;;;;;;;8.90;5.95;;;;;;;;;;5110863;28;20058;-79
2022/07/25 08:09:20;;;;;;;10.77;5.85;;;;;;;;;;5110426;28;20035;-77
2022/07/25 08:11:46;;;;;;;8.63;6.22;;;;;;;;;;5109432;28;20085;-79
2022/07/25 08:14:12;;;;;;;10.15;6.45;;;;;;;;;;5110150;28;20384;-79
2022/07/25 08:16:39;;;;;;;9.43;6.10;;;;;;;;;;5107461;28;20028;-76
2022/07/25 08:19:05;;;;;;;7.95;6.03;;;;;;;;;;5107201;28;20055;-79
2022/07/25 08:21:31;;;;;;;8.98;6.50;;;;;;;;;;5092743;28;20081;-77
2022/07/25 08:23:57;;;;;;;10.75;6.43;;;;;;;;;;5098666;28;20109;-77
2022/07/25 08:26:26;;;;;;;11.60;6.07;;;;;;;;;;5088888;28;20020;-77
2022/07/25 08:28:52;;;;;;;9.73;6.40;;;;;;;;;;5089523;28;20023;-78
2022/07/25 08:31:19;;;;;;;9.00;6.55;;;;;;;;;;5088670;28;20480;-76
2022/07/25 08:33:45;;;;;;;8.55;5.78;;;;;;;;;;5089481;28;20473;-74
2022/07/25 08:36:11;;;;;;;9.88;5.55;;;;;;;;;;5088112;28;20028;-77
2022/07/25 08:38:37;;;;;;;9.80;6.18;;;;;;;;;;5089350;28;20020;-73
2022/07/25 08:41:03;;;;;;;10.88;6.05;;;;;;;;;;5087319;28;20024;-78
2022/07/25 08:43:33;;;;;;;9.70;6.20;;;;;;;;;;5087424;28;20029;-76
2022/07/25 08:46:01;;;;;;;8.80;5.75;;;;;;;;;;5103402;28;20480;-78
2022/07/25 08:48:28;;;;;;;10.55;5.90;;;;;;;;;;5102722;28;20431;-78
2022/07/25 08:50:58;;;;;;;7.78;5.50;;;;;;;;;;5086955;28;20139;-77
2022/07/25 08:53:24;;;;;;;8.25;5.97;;;;;;;;;;5087757;28;20103;-74
2022/07/25 08:55:50;;;;;;;7.57;5.03;;;;;;;;;;5089099;28;20480;-80
2022/07/25 08:58:17;;;;;;;9.13;6.25;;;;;;;;;;5108019;28;20047;-79
2022/07/25 09:00:44;;;;;;;8.63;5.78;;;;;;;;;;5118885;28;20024;-77
2022/07/25 09:03:10;;;;;;;37.88;13.90;;;;;;;;;;5075551;28;20073;-78
2022/07/25 09:05:37;;;;;;;10.15;6.47;;;;;;;;;;5077785;28;20062;-77
2022/07/25 09:08:08;;;;;;;8.32;6.07;;;;;;;;;;5091250;28;20024;-79
2022/07/25 09:10:35;;;;;;;9.75;6.03;;;;;;;;;;5094965;28;20399;-75
2022/07/25 09:13:04;;;;;;;8.15;5.90;;;;;;;;;;5095668;28;20407;-78
2022/07/25 09:15:37;;;;;;;9.32;5.28;;;;;;;;;;5096023;28;20511;-80
2022/07/25 09:18:05;;;;;;;7.30;5.32;;;;;;;;;;5094441;28;20025;-75
2022/07/25 09:20:52;;;;;;;8.23;5.57;;;;;;;;;;5093490;28;20495;-73
2022/07/25 09:23:30;;;;;;;8.70;5.78;;;;;;;;;;5095797;28;20016;-74
2022/07/25 09:26:12;;;;;;;7.63;5.40;;;;;;;;;;5095379;28;20468;-75
2022/07/25 09:28:43;;;;;;;9.13;5.53;;;;;;;;;;5094883;28;20194;-75
2022/07/25 09:31:10;;;;;;;11.77;5.82;;;;;;;;;;5093557;28;20028;-75
2022/07/25 09:33:45;;;;;;;7.88;5.25;;;;;;;;;;5092097;28;20020;-75
2022/07/25 09:36:11;;;;;;;7.47;5.47;;;;;;;;;;5092308;28;20035;-75
2022/07/25 09:38:37;;;;;;;8.32;5.60;;;;;;;;;;5091344;28;20024;-75
2022/07/25 09:41:04;;;;;;;7.20;5.25;;;;;;;;;;5092856;28;20099;-75
2022/07/25 09:43:56;;;;;;;9.20;5.68;;;;;;;;;;5093709;28;20472;-75
2022/07/25 09:46:28;;;;;;;7.53;4.53;;;;;;;;;;5091130;28;20507;-75
2022/07/25 09:48:57;;;;;;;8.85;5.70;;;;;;;;;;5095158;28;20032;-75
2022/07/25 09:51:23;;;;;;;8.13;5.82;;;;;;;;;;5095118;28;20067;-74
2022/07/25 09:53:49;;;;;;;7.38;5.30;;;;;;;;;;5095303;28;20020;-74
2022/07/25 09:56:15;;;;;;;7.68;5.25;;;;;;;;;;5093806;28;20111;-74
2022/07/25 09:58:42;;;;;;;8.13;5.28;;;;;;;;;;5095216;28;20039;-76
2022/07/25 10:01:08;;;;;;;6.43;4.88;;;;;;;;;;5094575;28;20031;-75
2022/07/25 10:03:53;;;;;;;9.40;5.78;;;;;;;;;;5095106;28;20384;-75
2022/07/25 10:06:22;;;;;;;9.43;5.15;;;;;;;;;;5095104;28;20084;-74
2022/07/25 10:08:49;;;;;;;8.10;4.75;;;;;;;;;;5094881;28;20549;-74
2022/07/25 10:11:22;;;;;;;9.23;5.68;;;;;;;;;;5095015;28;20107;-74
2022/07/25 10:13:49;;;;;;;7.55;4.90;;;;;;;;;;5094024;28;20077;-74
2022/07/25 10:16:17;;;;;;;8.20;5.47;;;;;;;;;;5094547;28;20488;-75
2022/07/25 10:18:51;;;;;;;6.65;4.22;;;;;;;;;;5093544;28;20494;-75
2022/07/25 10:21:17;;;;;;;6.65;4.05;;;;;;;;;;5095456;28;20020;-75
2022/07/25 10:23:45;;;;;;;7.25;4.13;;;;;;;;;;5094402;28;20472;-75
2022/07/25 10:26:15;;;;;;;6.68;4.25;;;;;;;;;;5094756;28;20559;-75
2022/07/25 10:28:46;;;;;;;6.40;4.38;;;;;;;;;;5094340;28;20055;-75
2022/07/25 10:31:35;;;;;;;6.22;3.92;;;;;;;;;;5094727;28;20508;-75
2022/07/25 10:34:05;;;;;;;7.30;4.60;;;;;;;;;;5086705;28;20033;-76
2022/07/25 10:36:42;;;;;;;7.00;4.45;;;;;;;;;;5092597;28;20024;-76
2022/07/25 10:39:10;;;;;;;6.40;3.80;;;;;;;;;;5094671;28;20096;-76
2022/07/25 10:41:40;;;;;;;11.85;5.28;;;;;;;;;;5094497;28;20031;-75
2022/07/25 10:44:11;;;;;;;6.00;4.25;;;;;;;;;;5093997;28;20059;-76
2022/07/25 10:46:37;;;;;;;6.47;4.63;;;;;;;;;;5093093;28;20115;-76
2022/07/25 10:49:04;;;;;;;7.05;4.35;;;;;;;;;;5092992;28;20338;-76
2022/07/25 10:51:32;;;;;;;6.35;4.35;;;;;;;;;;5092390;28;20058;-75
2022/07/25 10:53:58;;;;;;;6.68;4.18;;;;;;;;;;5094507;28;20020;-76
2022/07/25 10:56:26;;;;;;;6.30;4.53;;;;;;;;;;5094172;28;20024;-75
2022/07/25 10:58:54;;;;;;;6.50;3.63;;;;;;;;;;5093701;28;20024;-76
2022/07/25 11:01:24;;;;;;;5.65;3.78;;;;;;;;;;5094138;28;20028;-76
2022/07/25 11:03:51;;;;;;;6.45;4.07;;;;;;;;;;5092316;28;20175;-75
2022/07/25 11:06:28;;;;;;;6.18;3.88;;;;;;;;;;5094303;28;20028;-73
2022/07/25 11:08:56;;;;;;;6.22;3.65;;;;;;;;;;5094294;28;20484;-74
2022/07/25 11:11:32;;;;;;;7.70;4.10;;;;;;;;;;5093522;28;20092;-74
2022/07/25 11:13:59;;;;;;;7.72;3.88;;;;;;;;;;5093884;28;20028;-74
2022/07/25 11:16:26;;;;;;;5.38;3.83;;;;;;;;;;5092550;28;20057;-74
2022/07/25 11:18:53;;;;;;;6.53;4.00;;;;;;;;;;5093345;28;20023;-75
2022/07/25 11:21:19;;;;;;;6.20;4.20;;;;;;;;;;5092486;28;20089;-74
2022/07/25 11:23:54;;;;;;;7.72;4.57;;;;;;;;;;5093801;28;20038;-76
2022/07/25 11:26:20;;;;;;;5.10;3.67;;;;;;;;;;5093088;28;20456;-75
2022/07/25 11:28:48;;;;;;;6.30;4.50;;;;;;;;;;5093677;28;20472;-75
2022/07/25 11:31:15;;;;;;;5.72;4.07;;;;;;;;;;5092203;28;20046;-75
2022/07/25 11:33:42;;;;;;;6.05;3.83;;;;;;;;;;5093284;28;20436;-75
2022/07/25 11:36:09;;;;;;;5.05;3.80;;;;;;;;;;5092562;28;20124;-75
2022/07/25 11:38:36;;;;;;;5.35;3.42;;;;;;;;;;5093516;28;20020;-75
2022/07/25 11:41:02;;;;;;;5.60;3.53;;;;;;;;;;5093098;28;20020;-75
2022/07/25 11:43:28;;;;;;;5.38;3.45;;;;;;;;;;5092138;28;20032;-75
2022/07/25 11:46:08;;;;;;;6.00;3.63;;;;;;;;;;5091930;28;20122;-74
2022/07/25 11:48:38;;;;;;;6.13;4.18;;;;;;;;;;5093479;28;20028;-75
2022/07/25 11:51:30;;;;;;;5.60;4.18;;;;;;;;;;5093407;28;20040;-74
2022/07/25 11:53:56;;;;;;;;;;;;;;;;;;5090710;28;20050;-75
2022/07/25 11:56:23;;;;;;;5.20;3.15;;;;;;;;;;5093443;28;19995;-74
2022/07/25 11:58:56;;;;;;;5.85;3.70;;;;;;;;;;5093319;28;20031;-75
2022/07/25 12:01:23;;;;;;;5.93;3.95;;;;;;;;;;5093165;28;20078;-74
2022/07/25 12:03:50;;;;;;;6.93;4.18;;;;;;;;;;5093215;28;20027;-74
2022/07/25 12:06:16;;;;;;;6.82;4.20;;;;;;;;;;5093186;28;20029;-74
2022/07/25 12:08:42;;;;;;;7.30;4.60;;;;;;;;;;5092226;28;20024;-72
2022/07/25 12:11:18;;;;;;;10.68;4.45;;;;;;;;;;5091697;28;20068;-74
2022/07/25 12:13:44;;;;;;;5.03;3.67;;;;;;;;;;5091751;28;20024;-73
2022/07/25 12:16:11;;;;;;;5.05;3.33;;;;;;;;;;5092650;28;20020;-74
2022/07/25 12:18:37;;;;;;;5.88;3.80;;;;;;;;;;5093071;28;20505;-74
2022/07/25 12:21:04;;;;;;;4.75;3.20;;;;;;;;;;5092684;28;20055;-74
2022/07/25 12:23:30;;;;;;;4.78;3.13;;;;;;;;;;5093158;28;20503;-73
2022/07/25 12:25:56;;;;;;;4.03;2.85;;;;;;;;;;5092968;28;20074;-74
2022/07/25 12:28:22;;;;;;;4.45;2.83;;;;;;;;;;5092645;28;20539;-73
2022/07/25 12:30:48;;;;;;;6.00;3.45;;;;;;;;;;5092934;28;20081;-74
2022/07/25 12:33:16;;;;;;;5.20;3.17;;;;;;;;;;5093027;28;20012;-75
2022/07/25 12:35:43;;;;;;;7.00;3.15;;;;;;;;;;5092612;28;20024;-74
2022/07/25 12:38:09;;;;;;;4.88;3.70;;;;;;;;;;5095699;28;20020;-74
2022/07/25 12:40:36;;;;;;;5.53;3.70;;;;;;;;;;5096547;28;20020;-74
2022/07/25 12:43:03;;;;;;;5.85;3.97;;;;;;;;;;5096238;28;20073;-75
2022/07/25 12:45:29;;;;;;;5.07;3.72;;;;;;;;;;5096580;28;20031;-75
2022/07/25 12:47:55;;;;;;;5.90;3.80;;;;;;;;;;5096486;28;20028;-74
2022/07/25 12:50:24;;;;;;;6.05;3.85;;;;;;;;;;5095776;28;20040;-75
2022/07/25 12:52:50;;;;;;;4.55;3.22;;;;;;;;;;5096499;28;20024;-74
2022/07/25 12:55:18;;;;;;;4.30;3.05;;;;;;;;;;5096560;28;20493;-74
2022/07/25 12:57:44;;;;;;;6.03;3.55;;;;;;;;;;5095986;28;20054;-76
2022/07/25 13:00:12;;;;;;;3.90;2.80;;;;;;;;;;5096490;28;20020;-75
2022/07/25 13:02:38;;;;;;;8.75;3.58;;;;;;;;;;5094979;28;20116;-75
2022/07/25 13:05:04;;;;;;;4.53;3.10;;;;;;;;;;5095927;28;20020;-75
2022/07/25 13:07:32;;;;;;;5.93;3.17;;;;;;;;;;5096398;28;20488;-75
2022/07/25 13:09:58;;;;;;;6.82;3.67;;;;;;;;;;5094745;28;20028;-75
2022/07/25 13:12:24;;;;;;;10.00;3.15;;;;;;;;;;5095764;28;20024;-75
2022/07/25 13:14:50;;;;;;;4.72;3.08;;;;;;;;;;5096104;28;20044;-75
2022/07/25 13:17:16;;;;;;;9.95;3.30;;;;;;;;;;5095726;28;20055;-74
2022/07/25 13:19:43;;;;;;;4.78;2.92;;;;;;;;;;5095943;28;20067;-73
2022/07/25 13:22:09;;;;;;;5.60;3.28;;;;;;;;;;5095956;28;20089;-74
2022/07/25 13:24:35;;;;;;;7.03;2.97;;;;;;;;;;5095578;28;20024;-74
2022/07/25 13:27:04;;;;;;;4.18;2.90;;;;;;;;;;5095814;28;20031;-75
2022/07/25 13:29:31;;;;;;;5.82;3.20;;;;;;;;;;5095984;28;20487;-74
2022/07/25 13:31:57;;;;;;;3.15;2.20;;;;;;;;;;5095447;28;20055;-75
2022/07/25 13:34:23;;;;;;;2.38;2.00;;;;;;;;;;5095987;28;20024;-76
2022/07/25 13:36:49;;;;;;;3.30;2.40;;;;;;;;;;5095733;28;20024;-75
2022/07/25 13:39:15;;;;;;;5.43;3.40;;;;;;;;;;5095285;28;20416;-75
2022/07/25 13:41:42;;;;;;;3.67;2.50;;;;;;;;;;5095542;28;20020;-74
2022/07/25 13:44:08;;;;;;;6.35;2.80;;;;;;;;;;5095492;28;20058;-75
2022/07/25 13:46:34;;;;;;;3.38;2.53;;;;;;;;;;5093839;28;20020;-76
2022/07/25 13:49:00;;;;;;;6.80;3.22;;;;;;;;;;5095987;28;20024;-76
2022/07/25 13:51:27;;;;;;;3.80;2.55;;;;;;;;;;5093937;28;20397;-75
2022/07/25 13:53:53;;;;;;;3.80;2.80;;;;;;;;;;5095077;28;20016;-75
2022/07/25 13:56:19;;;;;;;4.78;2.70;;;;;;;;;;5095488;28;20035;-73
2022/07/25 13:58:45;;;;;;;6.53;2.85;;;;;;;;;;5095424;28;20024;-75
2022/07/25 14:01:11;;;;;;;4.00;2.60;;;;;;;;;;5095232;28;20024;-75
2022/07/25 14:03:37;;;;;;;4.90;2.70;;;;;;;;;;5093930;28;20479;-76
2022/07/25 14:06:04;;;;;;;5.22;2.40;;;;;;;;;;5095111;28;20031;-76
2022/07/25 14:08:31;;;;;;;5.05;2.83;;;;;;;;;;5093622;28;20035;-74
2022/07/25 14:10:57;;;;;;;3.05;2.38;;;;;;;;;;5095049;28;20387;-75
2022/07/25 14:13:23;;;;;;;3.42;2.20;;;;;;;;;;5094995;28;20376;-75
2022/07/25 14:15:49;;;;;;;4.40;2.63;;;;;;;;;;5094595;28;20502;-74
2022/07/25 14:18:16;;;;;;;4.78;2.80;;;;;;;;;;5094907;28;20024;-74
2022/07/25 14:20:42;;;;;;;3.88;2.53;;;;;;;;;;5094359;28;20038;-74
2022/07/25 14:23:08;;;;;;;3.63;2.35;;;;;;;;;;5094821;28;20069;-75
2022/07/25 14:25:34;;;;;;;3.28;2.40;;;;;;;;;;5093497;28;20494;-78
2022/07/25 14:28:00;;;;;;;3.28;2.38;;;;;;;;;;5094459;28;20027;-75
2022/07/25 14:30:27;;;;;;;3.90;2.60;;;;;;;;;;5094597;28;20020;-75
2022/07/25 14:32:53;;;;;;;4.88;2.83;;;;;;;;;;5094625;28;20059;-76
2022/07/25 14:35:19;;;;;;;5.82;3.03;;;;;;;;;;5093857;28;20549;-76
2022/07/25 14:37:46;;;;;;;5.68;2.80;;;;;;;;;;5094613;28;20125;-75
2022/07/25 14:40:13;;;;;;;5.72;2.85;;;;;;;;;;5094712;28;20099;-75
2022/07/25 14:42:40;;;;;;;4.53;2.90;;;;;;;;;;5094162;28;20024;-75
2022/07/25 14:45:07;;;;;;;4.15;2.78;;;;;;;;;;5093105;28;20438;-75
2022/07/25 14:47:33;;;;;;;4.80;2.90;;;;;;;;;;5094448;28;20020;-75
2022/07/25 14:49:59;;;;;;;4.28;2.60;;;;;;;;;;5092406;28;20040;-75
2022/07/25 14:52:25;;;;;;;4.45;2.60;;;;;;;;;;5094381;28;20027;-73
2022/07/25 14:54:52;;;;;;;4.88;3.10;;;;;;;;;;5094187;28;20063;-75
2022/07/25 14:57:18;;;;;;;3.50;2.50;;;;;;;;;;5093883;28;20388;-76
2022/07/25 14:59:44;;;;;;;4.85;3.00;;;;;;;;;;5093621;28;20032;-75
2022/07/25 15:02:10;;;;;;;4.43;2.50;;;;;;;;;;5094036;28;20430;-74
2022/07/25 15:04:36;;;;;;;5.72;2.80;;;;;;;;;;5092362;28;20384;-75
2022/07/25 15:07:03;;;;;;;4.18;2.80;;;;;;;;;;5094322;28;20468;-74
2022/07/25 15:09:29;;;;;;;5.22;3.03;;;;;;;;;;5093894;28;20430;-77
2022/07/25 15:11:55;;;;;;;4.10;2.88;;;;;;;;;;5093469;28;20043;-76
2022/07/25 15:14:21;;;;;;;4.03;2.80;;;;;;;;;;5093841;28;20020;-76
2022/07/25 15:16:47;;;;;;;4.88;3.20;;;;;;;;;;5093567;28;20376;-75
2022/07/25 15:19:13;;;;;;;4.38;3.25;;;;;;;;;;5093847;28;20024;-77
2022/07/25 15:21:40;;;;;;;5.22;3.47;;;;;;;;;;5093709;28;20020;-74
2022/07/25 15:24:06;;;;;;;6.07;3.47;;;;;;;;;;5092130;28;20392;-75
2022/07/25 15:26:32;;;;;;;5.18;3.78;;;;;;;;;;5093690;28;20024;-75
2022/07/25 15:28:59;;;;;;;4.70;3.58;;;;;;;;;;5093759;28;20012;-74
2022/07/25 15:31:25;;;;;;;4.22;3.10;;;;;;;;;;5092151;28;20084;-73
2022/07/25 15:33:52;;;;;;;4.55;3.28;;;;;;;;;;5092259;28;20335;-73
2022/07/25 15:36:18;;;;;;;5.13;3.42;;;;;;;;;;5091972;28;20111;-75
2022/07/25 15:38:45;;;;;;;4.85;3.53;;;;;;;;;;5093159;28;20016;-74
2022/07/25 15:41:11;;;;;;;6.43;3.17;;;;;;;;;;5093635;28;20024;-75
2022/07/25 15:43:38;;;;;;;5.10;3.28;;;;;;;;;;5093478;28;20354;-74
2022/07/25 15:46:05;;;;;;;4.60;3.20;;;;;;;;;;5091736;28;20118;-74
2022/07/25 15:48:32;;;;;;;6.15;3.92;;;;;;;;;;5092052;28;20480;-75
2022/07/25 15:50:59;;;;;;;4.55;3.20;;;;;;;;;;5093109;28;20059;-74
2022/07/25 15:53:25;;;;;;;5.15;3.13;;;;;;;;;;5091584;28;20103;-75
2022/07/25 15:55:51;;;;;;;4.38;3.28;;;;;;;;;;5093364;28;20028;-75